Time;durP1;ratioP1;P1;durP2;ratioP2;P2;SDS_P1;SDS_P2;PMS_P1;PMS_P2;Temp;Humidity;BMP_temperature;BMP_pressure;BME280_temperature;BME280_humidity;BME280_pressure;Samples;Min_cycle;Max_cycle;Signal;HPM_P1;HPM_P2
2023/08/24 00:01:59;;;;;;;1.47;0.90;;;20.30;98.20;;;;;;4863157;29;20499;-79
2023/08/24 00:04:25;;;;;;;1.47;0.90;;;20.20;98.20;;;;;;4863569;29;20723;-79
2023/08/24 00:06:52;;;;;;;1.50;0.90;;;20.30;98.20;;;;;;4859233;29;20546;-79
2023/08/24 00:09:19;;;;;;;1.47;0.90;;;20.20;98.20;;;;;;4868360;29;20475;-79
2023/08/24 00:11:47;;;;;;;1.43;0.90;;;20.20;98.20;;;;;;4861371;29;21000;-79
2023/08/24 00:14:14;;;;;;;1.43;0.90;;;20.20;98.20;;;;;;4869630;29;20506;-79
2023/08/24 00:16:41;;;;;;;1.43;0.90;;;20.20;98.20;;;;;;4854660;29;20497;-79
2023/08/24 00:19:08;;;;;;;1.50;0.90;;;20.20;98.20;;;;;;4868913;29;20471;-79
2023/08/24 00:21:35;;;;;;;1.50;0.90;;;20.20;98.20;;;;;;4854645;29;20502;-78
2023/08/24 00:24:01;;;;;;;1.43;0.90;;;20.10;98.20;;;;;;4869680;29;20736;-79
2023/08/24 00:26:28;;;;;;;1.50;0.90;;;20.10;98.20;;;;;;4852534;29;20522;-79
2023/08/24 00:28:56;;;;;;;1.50;1.00;;;20.10;98.20;;;;;;4872587;29;20471;-79
2023/08/24 00:31:23;;;;;;;1.50;0.90;;;20.10;98.20;;;;;;4854836;29;20503;-79
2023/08/24 00:33:51;;;;;;;1.50;1.00;;;20.10;98.20;;;;;;4871519;29;20476;-79
2023/08/24 00:36:18;;;;;;;1.47;0.90;;;20.10;98.20;;;;;;4850948;29;21068;-79
2023/08/24 00:38:50;;;;;;;1.50;1.03;;;20.00;98.20;;;;;;4874728;29;20476;-79
2023/08/24 00:41:17;;;;;;;1.43;0.90;;;20.00;98.20;;;;;;4854730;29;20504;-79
2023/08/24 00:43:44;;;;;;;1.47;0.90;;;20.00;98.20;;;;;;4877455;29;20767;-79
2023/08/24 00:46:12;;;;;;;1.47;0.90;;;20.00;98.20;;;;;;4849637;29;21045;-79
2023/08/24 00:48:39;;;;;;;1.50;0.90;;;20.00;98.20;;;;;;4870972;29;20574;-79
2023/08/24 00:51:06;;;;;;;1.50;0.90;;;20.00;98.20;;;;;;4848190;29;20497;-79
2023/08/24 00:53:33;;;;;;;1.47;0.90;;;19.90;98.20;;;;;;4875926;29;20481;-79
2023/08/24 00:56:00;;;;;;;1.47;0.90;;;19.90;98.20;;;;;;4848596;29;20472;-80
2023/08/24 00:58:28;;;;;;;1.50;0.90;;;19.90;98.20;;;;;;4874247;29;20467;-79
2023/08/24 01:00:56;;;;;;;1.47;1.00;;;19.80;98.20;;;;;;4847640;29;20499;-79
2023/08/24 01:03:25;;;;;;;1.50;0.90;;;19.80;98.20;;;;;;4876507;29;20883;-79
2023/08/24 01:05:52;;;;;;;1.50;0.90;;;19.80;98.20;;;;;;4847539;29;20464;-79
2023/08/24 01:08:20;;;;;;;1.50;0.90;;;19.80;98.20;;;;;;4877885;29;20471;-79
2023/08/24 01:10:54;;;;;;;1.47;0.90;;;19.80;98.20;;;;;;4854484;29;20494;-79
2023/08/24 01:13:29;;;;;;;1.47;0.90;;;19.80;98.20;;;;;;4879907;29;20495;-79
2023/08/24 01:16:04;;;;;;;1.47;0.90;;;19.70;98.20;;;;;;4847699;29;20459;-79
2023/08/24 01:18:35;;;;;;;1.47;0.90;;;19.70;98.20;;;;;;4873973;29;20962;-79
2023/08/24 01:21:04;;;;;;;1.47;0.93;;;19.70;98.20;;;;;;4839489;29;20494;-79
2023/08/24 01:23:39;;;;;;;1.50;0.90;;;19.70;98.20;;;;;;4866190;29;20466;-79
2023/08/24 01:26:10;;;;;;;1.47;0.90;;;19.70;98.20;;;;;;4851185;29;20471;-80
2023/08/24 01:28:37;;;;;;;1.50;1.00;;;19.70;98.20;;;;;;4878662;29;20475;-79
2023/08/24 01:31:05;;;;;;;1.47;0.93;;;19.70;98.20;;;;;;4853363;29;20586;-80
2023/08/24 01:33:32;;;;;;;2.53;2.33;;;19.60;98.20;;;;;;4875634;29;20471;-79
2023/08/24 01:35:59;;;;;;;1.50;1.00;;;19.60;98.20;;;;;;4851536;29;20477;-79
2023/08/24 01:38:26;;;;;;;1.43;0.90;;;19.60;98.20;;;;;;4879090;29;20476;-79
2023/08/24 01:41:00;;;;;;;1.50;1.00;;;19.60;98.20;;;;;;4849420;29;20495;-79
2023/08/24 01:43:33;;;;;;;1.50;0.90;;;19.60;98.20;;;;;;4879318;29;20841;-79
2023/08/24 01:46:02;;;;;;;1.47;0.90;;;19.60;98.20;;;;;;4850531;29;20539;-79
2023/08/24 01:48:30;;;;;;;1.47;0.93;;;19.60;98.20;;;;;;4868655;29;20467;-79
2023/08/24 01:50:58;;;;;;;1.50;0.90;;;19.60;98.20;;;;;;4849945;29;20513;-79
2023/08/24 01:53:26;;;;;;;1.50;0.90;;;19.60;98.20;;;;;;4875986;29;20478;-79
2023/08/24 01:55:53;;;;;;;1.47;0.90;;;19.50;98.20;;;;;;4848120;29;20478;-80
2023/08/24 01:58:21;;;;;;;1.50;0.90;;;19.50;98.20;;;;;;4881239;29;20605;-79
2023/08/24 02:00:49;;;;;;;1.47;0.90;;;19.50;98.20;;;;;;4850763;29;20533;-79
2023/08/24 02:03:16;;;;;;;1.47;0.90;;;19.50;98.20;;;;;;4884832;29;20483;-79
2023/08/24 02:05:43;;;;;;;1.47;0.90;;;19.50;98.20;;;;;;4858133;29;20479;-79
2023/08/24 02:08:09;;;;;;;1.47;0.90;;;19.50;98.20;;;;;;4873741;29;20786;-79
2023/08/24 02:10:36;;;;;;;1.43;0.90;;;19.50;98.20;;;;;;4857748;29;20554;-79
2023/08/24 02:13:03;;;;;;;1.50;0.90;;;19.50;98.20;;;;;;4873653;29;20496;-80
2023/08/24 02:15:30;;;;;;;1.50;0.90;;;19.50;98.20;;;;;;4854648;29;20554;-79
2023/08/24 02:17:58;;;;;;;1.47;0.90;;;19.50;98.20;;;;;;4875101;29;20507;-80
2023/08/24 02:20:25;;;;;;;1.50;0.90;;;19.50;98.20;;;;;;4859952;29;21014;-79
2023/08/24 02:22:52;;;;;;;1.43;0.90;;;19.50;98.20;;;;;;4873628;29;21044;-79
2023/08/24 02:25:19;;;;;;;1.50;0.90;;;19.50;98.20;;;;;;4860262;29;20467;-79
2023/08/24 02:27:45;;;;;;;1.50;1.00;;;19.50;98.20;;;;;;4873993;29;20657;-79
2023/08/24 02:30:13;;;;;;;1.50;1.00;;;19.50;98.20;;;;;;4860875;29;20768;-79
2023/08/24 02:35:11;;;;;;;1.47;0.90;;;19.50;98.20;;;;;;4886672;29;20486;-78
2023/08/24 02:37:38;;;;;;;1.47;0.90;;;19.40;98.20;;;;;;4893341;29;20520;-79
2023/08/24 02:40:06;;;;;;;1.47;0.90;;;19.50;98.20;;;;;;4889309;29;20743;-79
2023/08/24 02:42:33;;;;;;;1.50;0.90;;;19.40;98.20;;;;;;4889504;29;20556;-79
2023/08/24 02:45:00;;;;;;;1.50;0.90;;;19.40;98.20;;;;;;4870031;29;20535;-77
2023/08/24 02:47:26;;;;;;;1.43;0.90;;;19.40;98.20;;;;;;4872096;29;20494;-81
2023/08/24 02:49:53;;;;;;;1.50;0.90;;;19.40;98.20;;;;;;4872222;29;20463;-79
2023/08/24 02:52:21;;;;;;;1.50;0.90;;;19.40;98.20;;;;;;4874973;29;21014;-80
2023/08/24 02:54:48;;;;;;;1.47;0.90;;;19.40;98.20;;;;;;4874016;29;20492;-81
2023/08/24 02:57:15;;;;;;;1.47;0.90;;;19.40;98.20;;;;;;4870929;29;21032;-82
2023/08/24 02:59:43;;;;;;;1.50;0.90;;;19.40;98.20;;;;;;4868999;29;20504;-81
2023/08/24 03:02:10;;;;;;;1.50;0.97;;;19.40;98.20;;;;;;4870273;29;20509;-79
2023/08/24 03:04:37;;;;;;;2.77;2.13;;;19.40;98.20;;;;;;4863430;29;20496;-82
2023/08/24 03:07:07;;;;;;;1.47;0.90;;;19.50;98.20;;;;;;4863153;29;20525;-79
2023/08/24 03:09:35;;;;;;;1.47;0.90;;;19.50;98.20;;;;;;4862412;29;20500;-82
2023/08/24 03:12:02;;;;;;;1.50;1.00;;;19.50;98.20;;;;;;4863458;29;20497;-79
2023/08/24 03:14:28;;;;;;;1.50;1.00;;;19.50;98.20;;;;;;4873404;29;20495;-79
2023/08/24 03:16:55;;;;;;;1.50;1.00;;;19.40;98.20;;;;;;4863942;29;20491;-79
2023/08/24 03:19:22;;;;;;;1.47;0.90;;;19.40;98.20;;;;;;4865037;29;20952;-81
2023/08/24 03:21:49;;;;;;;1.50;1.00;;;19.50;98.20;;;;;;4861524;29;20522;-80
2023/08/24 03:24:15;;;;;;;1.47;0.90;;;19.50;98.20;;;;;;4875800;29;20487;-82
2023/08/24 03:26:43;;;;;;;1.50;0.90;;;19.60;98.20;;;;;;4865545;29;20497;-77
2023/08/24 03:29:10;;;;;;;1.50;1.00;;;19.60;98.20;;;;;;4873887;29;20981;-80
2023/08/24 03:31:37;;;;;;;1.47;0.90;;;19.60;98.20;;;;;;4867168;29;20780;-79
2023/08/24 03:34:04;;;;;;;1.50;0.90;;;19.60;98.20;;;;;;4878061;29;20534;-82
2023/08/24 03:36:31;;;;;;;1.47;0.90;;;19.70;98.20;;;;;;4864421;29;20498;-79
2023/08/24 03:38:57;;;;;;;1.50;0.90;;;19.70;98.20;;;;;;4878390;29;20471;-80
2023/08/24 03:41:24;;;;;;;1.47;0.90;;;19.70;98.20;;;;;;4868193;29;20585;-81
2023/08/24 03:43:52;;;;;;;1.50;0.90;;;19.80;98.20;;;;;;4882408;29;20495;-78
2023/08/24 03:46:19;;;;;;;1.47;0.90;;;19.80;98.20;;;;;;4867855;29;20486;-77
2023/08/24 03:48:46;;;;;;;1.43;0.90;;;19.80;98.20;;;;;;4882857;29;20474;-78
2023/08/24 03:51:13;;;;;;;2.47;1.93;;;19.80;98.20;;;;;;4866280;29;20490;-79
2023/08/24 03:53:40;;;;;;;1.47;0.90;;;19.80;98.20;;;;;;4882808;29;20505;-79
2023/08/24 03:56:06;;;;;;;1.50;1.10;;;19.80;98.20;;;;;;4865547;29;20470;-80
2023/08/24 03:58:33;;;;;;;1.43;0.90;;;19.80;98.20;;;;;;4879028;29;20475;-77
2023/08/24 04:01:02;;;;;;;1.47;0.90;;;19.90;98.20;;;;;;4864249;29;20480;-80
2023/08/24 04:03:28;;;;;;;1.50;0.90;;;19.90;98.20;;;;;;4883827;29;20487;-79
2023/08/24 04:05:55;;;;;;;1.43;0.90;;;19.90;98.20;;;;;;4864359;29;20478;-78
2023/08/24 04:08:22;;;;;;;1.47;0.90;;;19.90;98.20;;;;;;4883267;29;20467;-78
2023/08/24 04:10:49;;;;;;;1.50;0.90;;;19.90;98.20;;;;;;4864344;29;20552;-80
2023/08/24 04:13:15;;;;;;;1.47;0.90;;;19.90;98.20;;;;;;4888135;29;20581;-77
2023/08/24 04:15:42;;;;;;;1.50;1.00;;;19.90;98.20;;;;;;4870685;29;20472;-79
2023/08/24 04:18:11;;;;;;;1.47;0.90;;;19.90;98.20;;;;;;4877924;29;20502;-79
2023/08/24 04:20:37;;;;;;;1.40;0.90;;;19.90;98.20;;;;;;4868285;29;20570;-80
2023/08/24 04:23:04;;;;;;;1.80;1.70;;;19.90;98.20;;;;;;4875900;29;20497;-78
2023/08/24 04:25:31;;;;;;;1.50;0.90;;;19.90;98.20;;;;;;4869997;29;20467;-77
2023/08/24 04:27:58;;;;;;;1.47;0.90;;;19.90;98.20;;;;;;4872575;29;20530;-79
2023/08/24 04:30:25;;;;;;;1.50;0.90;;;19.90;98.20;;;;;;4865449;29;20803;-80
2023/08/24 04:32:51;;;;;;;1.47;0.90;;;19.90;98.20;;;;;;4871327;29;20914;-77
2023/08/24 04:35:20;;;;;;;1.47;0.90;;;19.90;98.20;;;;;;4864188;29;20471;-79
2023/08/24 04:37:46;;;;;;;1.50;0.90;;;19.80;98.20;;;;;;4869723;29;20516;-79
2023/08/24 04:40:13;;;;;;;1.50;1.00;;;19.80;98.20;;;;;;4860363;29;20470;-81
2023/08/24 04:42:40;;;;;;;1.47;0.90;;;19.70;98.20;;;;;;4864615;29;20479;-78
2023/08/24 04:45:09;;;;;;;1.50;0.90;;;19.70;98.20;;;;;;4862838;29;20467;-80
2023/08/24 04:47:36;;;;;;;1.50;0.90;;;19.60;98.20;;;;;;4869462;29;20561;-79
2023/08/24 04:50:02;;;;;;;1.50;0.90;;;19.60;98.20;;;;;;4858721;29;20502;-79
2023/08/24 04:52:31;;;;;;;1.50;1.00;;;19.70;98.20;;;;;;4858646;29;20863;-76
2023/08/24 04:54:57;;;;;;;1.43;0.90;;;19.70;98.20;;;;;;4857108;29;20499;-79
2023/08/24 04:57:24;;;;;;;1.50;0.90;;;19.70;98.20;;;;;;4861783;29;20494;-82
2023/08/24 04:59:51;;;;;;;1.43;0.90;;;19.70;98.20;;;;;;4861615;29;20965;-80
2023/08/24 05:02:18;;;;;;;1.47;0.90;;;19.50;98.20;;;;;;4856829;29;20497;-78
2023/08/24 05:04:45;;;;;;;1.50;0.90;;;19.40;98.20;;;;;;4863643;29;20501;-80
2023/08/24 05:07:11;;;;;;;1.47;0.90;;;19.40;98.20;;;;;;4861583;29;20486;-77
2023/08/24 05:09:39;;;;;;;1.47;0.90;;;19.40;98.20;;;;;;4862218;29;20486;-80
2023/08/24 05:12:07;;;;;;;1.50;0.90;;;19.30;98.20;;;;;;4861283;29;20847;-78
2023/08/24 05:14:34;;;;;;;1.47;0.90;;;19.30;98.20;;;;;;4863771;29;20872;-78
2023/08/24 05:17:01;;;;;;;1.43;0.90;;;19.30;98.20;;;;;;4859076;29;20650;-81
2023/08/24 05:19:28;;;;;;;1.50;1.00;;;19.30;98.20;;;;;;4862263;29;20471;-79
2023/08/24 05:21:54;;;;;;;1.43;0.90;;;19.30;98.20;;;;;;4856169;29;20990;-79
2023/08/24 05:24:21;;;;;;;1.43;0.90;;;19.30;98.20;;;;;;4861056;29;20483;-75
2023/08/24 05:26:49;;;;;;;1.93;1.73;;;19.30;98.20;;;;;;4855848;29;20488;-77
2023/08/24 05:29:16;;;;;;;1.43;0.90;;;19.40;98.20;;;;;;4862793;29;20478;-78
2023/08/24 05:31:43;;;;;;;1.50;0.90;;;19.40;98.20;;;;;;4857590;29;20616;-78
2023/08/24 05:34:10;;;;;;;1.47;0.90;;;19.40;98.20;;;;;;4865901;29;20502;-76
2023/08/24 05:36:36;;;;;;;1.50;1.00;;;19.40;98.20;;;;;;4855799;29;20574;-78
2023/08/24 05:39:03;;;;;;;1.50;0.90;;;19.40;98.20;;;;;;4864303;29;20468;-78
2023/08/24 05:41:30;;;;;;;1.50;1.27;;;19.40;98.20;;;;;;4849870;29;20486;-77
2023/08/24 05:43:58;;;;;;;1.40;0.90;;;19.40;98.20;;;;;;4868121;29;20495;-77
2023/08/24 05:46:25;;;;;;;1.47;0.90;;;19.40;98.20;;;;;;4850593;29;20498;-78
2023/08/24 05:48:52;;;;;;;1.50;1.00;;;19.40;98.20;;;;;;4868808;29;20471;-79
2023/08/24 05:51:18;;;;;;;1.47;0.90;;;19.40;98.20;;;;;;4852509;29;20498;-79
2023/08/24 05:53:45;;;;;;;1.50;1.00;;;19.40;98.20;;;;;;4870372;29;20491;-77
2023/08/24 05:56:12;;;;;;;1.50;1.10;;;19.40;98.20;;;;;;4855199;29;21114;-78
2023/08/24 05:58:39;;;;;;;1.47;0.90;;;19.40;98.20;;;;;;4872153;29;20469;-77
2023/08/24 06:01:07;;;;;;;1.47;0.90;;;19.50;98.20;;;;;;4857392;29;20475;-77
2023/08/24 06:03:35;;;;;;;1.47;0.90;;;19.50;98.20;;;;;;4875338;29;20490;-77
2023/08/24 06:06:03;;;;;;;1.50;0.90;;;19.60;98.20;;;;;;4857184;29;20489;-77
2023/08/24 06:08:30;;;;;;;1.50;0.90;;;19.60;98.20;;;;;;4873720;29;20486;-77
2023/08/24 06:10:57;;;;;;;1.50;0.90;;;19.70;98.20;;;;;;4853937;29;20602;-78
2023/08/24 06:13:24;;;;;;;1.47;0.90;;;19.70;98.20;;;;;;4876771;29;20804;-77
2023/08/24 06:15:50;;;;;;;1.50;0.90;;;19.70;98.20;;;;;;4851533;29;20835;-79
2023/08/24 06:18:18;;;;;;;2.27;2.07;;;19.70;98.20;;;;;;4877701;29;20467;-80
2023/08/24 06:20:46;;;;;;;1.43;0.90;;;19.70;98.20;;;;;;4864628;29;20477;-79
2023/08/24 06:23:13;;;;;;;1.50;0.90;;;19.80;98.20;;;;;;4867167;29;20707;-77
2023/08/24 06:25:40;;;;;;;1.50;0.90;;;19.80;98.20;;;;;;4858101;29;20543;-75
2023/08/24 06:28:08;;;;;;;1.47;0.90;;;19.80;98.20;;;;;;4863208;29;20498;-77
2023/08/24 06:30:39;;;;;;;1.50;0.90;;;19.80;98.20;;;;;;4856567;29;20475;-76
2023/08/24 06:33:07;;;;;;;1.50;0.90;;;19.90;98.20;;;;;;4861847;29;20577;-77
2023/08/24 06:35:35;;;;;;;1.50;0.90;;;20.10;98.20;;;;;;4858461;29;20868;-76
2023/08/24 06:38:03;;;;;;;1.50;0.90;;;20.30;98.20;;;;;;4861914;29;21092;-76
2023/08/24 06:40:30;;;;;;;1.50;0.90;;;20.50;98.20;;;;;;4853439;29;20501;-77
2023/08/24 06:42:57;;;;;;;1.47;0.90;;;20.70;98.20;;;;;;4866360;29;20501;-75
2023/08/24 06:45:24;;;;;;;1.50;0.90;;;20.80;98.20;;;;;;4862465;29;20479;-76
2023/08/24 06:47:52;;;;;;;1.50;0.90;;;20.90;98.20;;;;;;4866387;29;20490;-77
2023/08/24 06:50:20;;;;;;;5.93;3.10;;;21.10;98.20;;;;;;4861218;29;20563;-80
2023/08/24 06:52:48;;;;;;;1.50;0.90;;;21.20;98.20;;;;;;4871069;29;20487;-79
2023/08/24 06:55:15;;;;;;;1.50;0.90;;;21.40;98.20;;;;;;4859119;29;20471;-78
2023/08/24 06:57:41;;;;;;;1.50;0.90;;;21.50;98.20;;;;;;4866294;29;20494;-79
2023/08/24 07:00:09;;;;;;;1.50;1.00;;;21.80;98.20;;;;;;4861381;29;20481;-79
2023/08/24 07:02:36;;;;;;;1.50;1.00;;;21.90;98.20;;;;;;4865159;29;20506;-78
2023/08/24 07:05:05;;;;;;;1.50;0.90;;;22.10;98.20;;;;;;4867541;29;20479;-79
2023/08/24 07:07:32;;;;;;;1.50;1.20;;;22.10;98.20;;;;;;4866050;29;20574;-79
2023/08/24 07:10:00;;;;;;;1.50;0.90;;;22.20;98.20;;;;;;4863686;29;20881;-78
2023/08/24 07:12:27;;;;;;;1.60;1.10;;;22.30;98.20;;;;;;4867751;29;20478;-79
2023/08/24 07:14:54;;;;;;;1.50;0.90;;;22.50;98.20;;;;;;4867690;29;20578;-78
2023/08/24 07:17:20;;;;;;;1.50;0.90;;;22.70;98.20;;;;;;4866203;29;20585;-78
2023/08/24 07:19:47;;;;;;;1.50;0.90;;;23.00;98.20;;;;;;4866091;29;20464;-77
2023/08/24 07:22:15;;;;;;;1.50;0.90;;;23.30;98.20;;;;;;4863819;29;21033;-78
2023/08/24 07:24:41;;;;;;;1.50;0.90;;;23.50;98.20;;;;;;4865625;29;20493;-77
2023/08/24 07:27:10;;;;;;;1.50;0.90;;;23.80;98.20;;;;;;4860379;29;20490;-78
2023/08/24 07:29:37;;;;;;;1.50;0.80;;;24.10;98.20;;;;;;4864446;29;20478;-78
2023/08/24 07:32:04;;;;;;;1.50;0.90;;;24.20;98.20;;;;;;4860174;29;20561;-78
2023/08/24 07:34:30;;;;;;;1.50;1.00;;;24.30;98.20;;;;;;4868896;29;20577;-78
2023/08/24 07:36:57;;;;;;;1.50;0.90;;;24.50;98.20;;;;;;4860077;29;20581;-78
2023/08/24 07:39:25;;;;;;;1.50;0.90;;;24.70;98.20;;;;;;4873256;29;20467;-80
2023/08/24 07:41:52;;;;;;;1.50;0.80;;;24.90;98.20;;;;;;4861833;29;21109;-76
2023/08/24 07:44:21;;;;;;;1.50;0.80;;;25.00;98.20;;;;;;4868830;29;20499;-77
2023/08/24 07:46:49;;;;;;;1.50;0.90;;;25.20;98.20;;;;;;4859499;29;20498;-78
2023/08/24 07:49:16;;;;;;;1.90;1.70;;;25.30;98.20;;;;;;4866738;29;20474;-79
2023/08/24 07:51:43;;;;;;;1.50;0.90;;;25.30;98.20;;;;;;4857195;29;20494;-77
2023/08/24 07:54:10;;;;;;;1.80;1.30;;;25.50;98.20;;;;;;4865714;29;20873;-78
2023/08/24 07:56:37;;;;;;;1.47;0.80;;;25.60;98.20;;;;;;4853408;29;20538;-77
2023/08/24 07:59:04;;;;;;;1.50;0.90;;;25.70;97.80;;;;;;4864807;29;20467;-78
2023/08/24 08:01:32;;;;;;;1.50;0.90;;;25.90;97.90;;;;;;4856043;29;20488;-79
2023/08/24 08:04:00;;;;;;;1.50;0.90;;;26.00;97.70;;;;;;4867145;29;20876;-78
2023/08/24 08:06:27;;;;;;;1.50;1.10;;;26.00;95.40;;;;;;4856136;29;20517;-78
2023/08/24 08:08:54;;;;;;;1.50;0.83;;;26.10;96.50;;;;;;4870895;29;20531;-79
2023/08/24 08:11:21;;;;;;;1.60;1.00;;;26.30;95.60;;;;;;4859497;29;20558;-80
2023/08/24 08:13:48;;;;;;;1.50;0.80;;;26.40;95.00;;;;;;4860034;29;20483;-78
2023/08/24 08:16:15;;;;;;;1.47;0.80;;;26.50;96.10;;;;;;4857963;29;20553;-78
2023/08/24 08:18:43;;;;;;;1.73;1.10;;;26.70;96.50;;;;;;4859840;29;20467;-78
2023/08/24 08:21:11;;;;;;;1.50;0.90;;;26.80;94.80;;;;;;4854765;29;20906;-79
2023/08/24 08:23:38;;;;;;;1.50;0.90;;;27.00;94.80;;;;;;4869110;29;20864;-81
2023/08/24 08:26:05;;;;;;;1.50;0.90;;;27.10;92.40;;;;;;4850753;29;20531;-77
2023/08/24 08:28:33;;;;;;;1.50;0.90;;;27.10;92.40;;;;;;4865040;29;20474;-80
2023/08/24 08:31:00;;;;;;;1.50;0.80;;;27.20;91.70;;;;;;4848463;29;20470;-77
2023/08/24 08:33:27;;;;;;;1.50;0.80;;;27.30;92.30;;;;;;4864687;29;20558;-78
2023/08/24 08:35:55;;;;;;;1.70;1.10;;;27.30;91.10;;;;;;4846167;29;20554;-79
2023/08/24 08:38:25;;;;;;;1.47;0.80;;;27.40;91.50;;;;;;4867042;29;20467;-79
2023/08/24 08:40:54;;;;;;;1.50;0.80;;;27.60;92.30;;;;;;4852884;29;20470;-80
2023/08/24 08:43:23;;;;;;;1.47;0.83;;;27.60;90.10;;;;;;4874295;29;20526;-80
2023/08/24 08:45:51;;;;;;;1.50;0.90;;;27.60;90.00;;;;;;4850711;29;20475;-78
2023/08/24 08:48:18;;;;;;;1.50;0.80;;;27.60;91.00;;;;;;4871593;29;20519;-79
2023/08/24 08:50:45;;;;;;;1.50;0.80;;;27.70;90.80;;;;;;4858419;29;20471;-78
2023/08/24 08:53:14;;;;;;;1.50;0.90;;;27.80;91.90;;;;;;4847899;29;20577;-79
2023/08/24 08:55:40;;;;;;;1.50;0.90;;;27.90;90.90;;;;;;4854897;29;20479;-79
2023/08/24 08:58:08;;;;;;;1.50;0.90;;;28.00;89.80;;;;;;4849524;29;21048;-79
2023/08/24 09:00:36;;;;;;;1.47;0.80;;;28.00;90.10;;;;;;4859456;29;20470;-78
2023/08/24 09:03:04;;;;;;;1.50;0.90;;;28.00;89.10;;;;;;4866567;29;20499;-79
2023/08/24 09:05:32;;;;;;;1.50;0.80;;;27.90;89.90;;;;;;4861358;29;20486;-79
2023/08/24 09:08:02;;;;;;;1.50;1.00;;;27.90;90.60;;;;;;4866944;29;21040;-80
2023/08/24 09:10:31;;;;;;;1.50;0.90;;;28.00;90.50;;;;;;4860136;29;20959;-78
2023/08/24 09:12:58;;;;;;;1.43;0.80;;;28.00;90.10;;;;;;4868101;29;20526;-77
2023/08/24 09:15:28;;;;;;;1.43;0.90;;;28.00;90.00;;;;;;4860099;29;20554;-79
2023/08/24 09:17:56;;;;;;;1.50;0.80;;;28.10;89.40;;;;;;4863139;29;20497;-79
2023/08/24 09:20:39;;;;;;;1.50;0.90;;;28.00;89.30;;;;;;4856815;29;20475;-78
2023/08/24 09:23:13;;;;;;;1.50;1.00;;;27.90;89.30;;;;;;4861745;29;21058;-76
2023/08/24 09:25:48;;;;;;;1.43;0.80;;;27.90;90.50;;;;;;4858513;29;20466;-80
2023/08/24 09:28:22;;;;;;;1.50;1.00;;;28.00;89.80;;;;;;4849495;29;20523;-77
2023/08/24 09:30:54;;;;;;;1.47;0.90;;;28.00;89.70;;;;;;4844708;29;20470;-78
2023/08/24 09:33:21;;;;;;;1.47;0.80;;;28.10;89.40;;;;;;4872919;29;20487;-78
2023/08/24 09:35:55;;;;;;;1.50;0.90;;;28.30;89.30;;;;;;4850899;29;20478;-78
2023/08/24 09:38:23;;;;;;;1.47;0.80;;;28.40;87.50;;;;;;4870993;29;20497;-79
2023/08/24 09:40:53;;;;;;;1.47;0.90;;;28.30;87.60;;;;;;4851892;29;20557;-79
2023/08/24 09:43:20;;;;;;;1.47;0.80;;;28.40;88.50;;;;;;4875952;29;20494;-77
2023/08/24 09:45:51;;;;;;;1.50;0.90;;;28.50;88.80;;;;;;4852105;29;20587;-80
2023/08/24 09:48:18;;;;;;;1.47;0.80;;;28.50;88.60;;;;;;4876687;29;20494;-77
2023/08/24 09:50:47;;;;;;;1.47;0.80;;;28.50;87.20;;;;;;4860556;29;20470;-79
2023/08/24 09:53:18;;;;;;;1.47;0.80;;;28.60;87.60;;;;;;4875985;29;20859;-77
2023/08/24 09:55:50;;;;;;;1.53;1.00;;;28.70;87.40;;;;;;4861650;29;20470;-79
2023/08/24 09:58:19;;;;;;;1.47;0.80;;;28.90;86.60;;;;;;4851164;29;20539;-76
2023/08/24 10:00:48;;;;;;;1.50;0.80;;;28.90;87.80;;;;;;4854226;29;20475;-79
2023/08/24 10:03:20;;;;;;;1.40;0.80;;;28.90;86.90;;;;;;4875586;29;20487;-78
2023/08/24 10:05:49;;;;;;;1.50;0.80;;;28.90;87.00;;;;;;4854596;29;20490;-78
2023/08/24 10:08:18;;;;;;;1.50;0.80;;;29.10;86.70;;;;;;4861998;29;20558;-76
2023/08/24 10:10:45;;;;;;;3.50;2.87;;;29.20;87.20;;;;;;4859217;29;20824;-78
2023/08/24 10:13:19;;;;;;;1.50;0.90;;;29.30;86.10;;;;;;4849875;29;20644;-77
2023/08/24 10:15:49;;;;;;;1.50;0.90;;;29.20;86.00;;;;;;4857534;29;20524;-81
2023/08/24 10:18:34;;;;;;;1.50;0.90;;;29.30;86.00;;;;;;4870805;29;20479;-82
2023/08/24 10:21:53;;;;;;;1.47;0.80;;;29.40;86.20;;;;;;4853289;29;20474;-79
2023/08/24 10:24:21;;;;;;;1.47;0.83;;;29.40;86.20;;;;;;4862283;29;20498;-80
2023/08/24 10:26:49;;;;;;;1.43;0.90;;;29.40;85.80;;;;;;4855245;29;20533;-77
2023/08/24 10:29:17;;;;;;;1.43;0.80;;;29.50;86.70;;;;;;4863450;29;20764;-79
2023/08/24 10:31:46;;;;;;;1.43;0.80;;;29.50;85.80;;;;;;4854272;29;20678;-81
2023/08/24 10:34:13;;;;;;;1.43;0.80;;;29.50;85.40;;;;;;4860490;29;20555;-79
2023/08/24 10:36:40;;;;;;;1.50;1.10;;;29.50;84.70;;;;;;4849006;29;20505;-79
2023/08/24 10:39:07;;;;;;;1.43;0.90;;;29.50;85.50;;;;;;4860087;29;20530;-80
2023/08/24 10:41:50;;;;;;;1.43;0.80;;;29.50;85.10;;;;;;4858584;29;21135;-79
2023/08/24 10:44:35;;;;;;;1.50;0.90;;;29.50;84.40;;;;;;4868051;29;20542;-80
2023/08/24 10:47:25;;;;;;;1.43;0.90;;;29.60;85.80;;;;;;4863894;29;20964;-79
2023/08/24 10:50:00;;;;;;;1.47;0.80;;;29.80;84.60;;;;;;4860574;29;20884;-81
2023/08/24 10:52:32;;;;;;;1.50;0.80;;;29.80;83.80;;;;;;4860992;29;20533;-80
2023/08/24 10:55:02;;;;;;;1.43;0.80;;;29.90;83.90;;;;;;4862468;29;20498;-82
2023/08/24 10:57:36;;;;;;;1.40;0.80;;;30.00;82.70;;;;;;4856873;29;20489;-79
2023/08/24 11:00:09;;;;;;;1.50;0.90;;;30.00;83.10;;;;;;4860201;29;20497;-80
2023/08/24 11:02:47;;;;;;;1.40;0.83;;;30.00;82.80;;;;;;4862688;29;20489;-80
2023/08/24 11:05:22;;;;;;;1.50;0.80;;;30.00;83.20;;;;;;4859790;29;20897;-78
2023/08/24 11:07:50;;;;;;;1.43;0.80;;;30.00;83.70;;;;;;4853686;29;21045;-83
2023/08/24 11:10:18;;;;;;;1.40;0.80;;;30.10;83.80;;;;;;4857130;29;20475;-79
2023/08/24 11:13:10;;;;;;;1.70;1.20;;;30.20;83.50;;;;;;4853147;29;20509;-80
2023/08/24 11:15:42;;;;;;;1.50;0.90;;;30.20;83.60;;;;;;4857806;29;20474;-82
2023/08/24 11:18:23;;;;;;;1.50;0.80;;;30.20;81.50;;;;;;4863079;29;20482;-81
2023/08/24 11:20:52;;;;;;;1.47;0.90;;;30.20;80.60;;;;;;4848268;29;20462;-78
2023/08/24 11:23:20;;;;;;;1.40;0.80;;;30.00;81.50;;;;;;4874796;29;20502;-79
2023/08/24 11:25:47;;;;;;;1.67;1.20;;;29.90;80.90;;;;;;4855073;29;20466;-80
2023/08/24 11:28:18;;;;;;;1.60;1.17;;;29.80;81.40;;;;;;4872332;29;20489;-80
2023/08/24 11:30:46;;;;;;;1.43;0.90;;;29.70;83.10;;;;;;4859298;29;20481;-79
2023/08/24 11:33:14;;;;;;;1.40;0.90;;;29.70;82.20;;;;;;4851723;29;20491;-80
2023/08/24 11:35:43;;;;;;;1.47;0.80;;;29.70;83.40;;;;;;4857968;29;20917;-79
2023/08/24 11:38:10;;;;;;;1.50;0.80;;;29.60;83.30;;;;;;4854119;29;20495;-78
2023/08/24 11:40:37;;;;;;;1.50;0.80;;;29.60;83.10;;;;;;4855747;29;20474;-78
2023/08/24 11:43:05;;;;;;;1.43;0.80;;;29.60;83.30;;;;;;4855556;29;20561;-79
2023/08/24 11:45:32;;;;;;;1.43;0.80;;;29.60;83.70;;;;;;4848333;29;20495;-78
2023/08/24 11:48:00;;;;;;;1.50;0.90;;;29.70;83.20;;;;;;4855043;29;20504;-80
2023/08/24 11:50:28;;;;;;;1.40;0.80;;;29.80;83.50;;;;;;4854278;29;20455;-78
2023/08/24 11:52:56;;;;;;;1.43;0.80;;;29.90;84.20;;;;;;4855288;29;20580;-79
2023/08/24 11:55:23;;;;;;;1.47;0.80;;;30.00;84.70;;;;;;4852630;29;20842;-79
2023/08/24 11:57:50;;;;;;;1.47;0.80;;;30.10;84.30;;;;;;4856019;29;20486;-78
2023/08/24 12:00:18;;;;;;;1.40;0.80;;;30.20;83.70;;;;;;4853889;29;20475;-78
2023/08/24 12:02:45;;;;;;;1.50;0.90;;;30.30;83.70;;;;;;4857819;29;20506;-78
2023/08/24 12:05:21;;;;;;;1.47;0.80;;;30.30;84.50;;;;;;4856551;29;20948;-78
2023/08/24 12:07:48;;;;;;;1.43;0.80;;;30.30;83.50;;;;;;4847137;29;20505;-79
2023/08/24 12:10:17;;;;;;;1.43;0.90;;;30.30;83.30;;;;;;4854367;29;20467;-78
2023/08/24 12:12:43;;;;;;;1.40;0.87;;;30.20;82.80;;;;;;4842332;29;20494;-77
2023/08/24 12:15:16;;;;;;;1.43;0.80;;;30.10;82.30;;;;;;4856378;29;20834;-79
2023/08/24 12:17:44;;;;;;;1.40;0.80;;;29.90;84.50;;;;;;4843875;29;20922;-77
2023/08/24 12:20:19;;;;;;;1.40;0.80;;;29.70;87.90;;;;;;4855123;29;20479;-77
2023/08/24 12:22:51;;;;;;;1.50;0.80;;;29.40;89.90;;;;;;4864801;29;20541;-76
2023/08/24 12:25:19;;;;;;;1.40;0.90;;;29.20;91.80;;;;;;4855713;29;20499;-77
2023/08/24 12:27:47;;;;;;;1.50;0.80;;;29.00;92.90;;;;;;4857903;29;20497;-77
2023/08/24 12:30:14;;;;;;;1.50;0.80;;;28.80;94.00;;;;;;4852363;29;20467;-77
2023/08/24 12:32:44;;;;;;;1.47;0.80;;;28.60;94.70;;;;;;4847140;29;20490;-77
2023/08/24 12:35:11;;;;;;;1.50;0.80;;;28.40;96.20;;;;;;4854334;29;20512;-75
2023/08/24 12:37:38;;;;;;;1.50;0.80;;;28.20;96.90;;;;;;4845551;29;20482;-75
2023/08/24 12:40:06;;;;;;;1.50;0.80;;;28.00;97.90;;;;;;4851753;29;20467;-75
2023/08/24 12:42:35;;;;;;;1.47;0.80;;;27.80;98.20;;;;;;4843344;29;20525;-77
2023/08/24 12:45:04;;;;;;;1.43;0.80;;;27.70;98.20;;;;;;4854415;29;20590;-76
2023/08/24 12:47:31;;;;;;;1.47;0.90;;;27.60;98.20;;;;;;4853688;29;20923;-77
2023/08/24 12:49:58;;;;;;;1.43;0.90;;;27.60;98.20;;;;;;4854133;29;20990;-77
2023/08/24 12:52:25;;;;;;;1.47;0.80;;;27.60;98.20;;;;;;4853789;29;20482;-77
2023/08/24 12:54:52;;;;;;;1.40;0.80;;;27.60;98.20;;;;;;4848903;29;20490;-77
2023/08/24 12:57:18;;;;;;;1.47;0.80;;;27.60;98.20;;;;;;4857414;29;20498;-77